createdAt,value
2023-01-17T00:02:13.849Z,61.60
2023-01-17T00:05:37.921Z,63.13
2023-01-17T00:09:01.571Z,62.12
2023-01-17T00:12:08.749Z,61.28
2023-01-17T00:15:16.869Z,61.29
2023-01-17T00:18:23.107Z,61.15
2023-01-17T00:21:46.738Z,61.53
2023-01-17T00:25:10.300Z,61.92
2023-01-17T00:28:15.292Z,62.37
2023-01-17T00:31:20.298Z,62.75
2023-01-17T00:34:25.266Z,63.07
2023-01-17T00:37:30.227Z,63.19
2023-01-17T00:40:36.026Z,63.12
2023-01-17T00:43:59.795Z,63.25
2023-01-17T00:47:23.329Z,62.78
2023-01-17T00:50:47.352Z,63.12
2023-01-17T00:54:10.831Z,62.44
2023-01-17T00:57:34.595Z,62.22
2023-01-17T01:00:58.207Z,62.42
2023-01-17T01:04:22.339Z,62.82
2023-01-17T01:07:46.117Z,63.49
2023-01-17T01:11:09.992Z,63.86
2023-01-17T01:14:33.466Z,63.81
2023-01-17T01:17:57.233Z,63.58
2023-01-17T01:21:24.804Z,63.17
2023-01-17T01:24:49.095Z,63.27
2023-01-17T01:28:21.051Z,62.63
2023-01-17T01:31:44.861Z,61.94
2023-01-17T01:34:51.214Z,62.15
2023-01-17T01:37:55.550Z,62.61
2023-01-17T01:41:01.487Z,63.42
2023-01-17T01:44:21.387Z,64.10
2023-01-17T01:47:32.144Z,64.97
2023-01-17T01:50:39.087Z,64.73
2023-01-17T01:53:53.996Z,63.84
2023-01-17T01:57:02.120Z,63.95
2023-01-17T02:00:15.827Z,64.08
2023-01-17T02:03:27.340Z,63.83
2023-01-17T02:06:36.864Z,64.06
2023-01-17T02:09:42.952Z,64.07
2023-01-17T02:12:50.654Z,64.78
2023-01-17T02:16:04.421Z,65.14
2023-01-17T02:19:37.469Z,65.02
2023-01-17T02:23:28.388Z,65.16
2023-01-17T02:27:01.219Z,65.10
2023-01-17T02:30:30.951Z,65.50
2023-01-17T02:33:46.887Z,65.34
2023-01-17T02:36:57.885Z,66.14
2023-01-17T02:40:10.175Z,65.31
2023-01-17T02:43:18.135Z,66.15
2023-01-17T02:46:24.384Z,66.57
2023-01-17T02:49:32.939Z,65.38
2023-01-17T02:52:51.378Z,65.20
2023-01-17T02:56:07.309Z,65.62
2023-01-17T02:59:22.339Z,66.06
2023-01-17T03:02:34.571Z,66.23
2023-01-17T03:05:45.695Z,65.51
2023-01-17T03:08:54.606Z,65.64
2023-01-17T03:12:01.170Z,65.62
2023-01-17T03:15:13.106Z,65.85
2023-01-17T03:18:19.734Z,65.69
2023-01-17T03:21:26.411Z,65.37
2023-01-17T03:24:32.688Z,65.07
2023-01-17T03:27:39.011Z,64.79
2023-01-17T03:30:43.436Z,64.62
2023-01-17T03:33:49.949Z,64.59
2023-01-17T03:36:56.420Z,64.52
2023-01-17T03:40:02.654Z,64.29
2023-01-17T03:43:09.096Z,63.96
2023-01-17T03:46:23.935Z,63.84
2023-01-17T03:49:30.232Z,63.75
2023-01-17T03:52:34.683Z,64.09
2023-01-17T03:55:40.773Z,63.86
2023-01-17T03:58:47.756Z,63.51
2023-01-17T04:01:54.107Z,63.58
2023-01-17T04:04:58.635Z,63.52
2023-01-17T04:08:06.781Z,64.34
2023-01-17T04:11:12.987Z,63.84
2023-01-17T04:14:19.199Z,63.97
2023-01-17T04:17:26.096Z,63.83
2023-01-17T04:20:35.761Z,64.22
2023-01-17T04:23:42.026Z,64.09
2023-01-17T04:26:48.243Z,63.86
2023-01-17T04:29:54.487Z,64.40
2023-01-17T04:32:59.564Z,64.73
2023-01-17T04:36:06.372Z,64.64
2023-01-17T04:39:12.638Z,64.31
2023-01-17T04:42:18.840Z,64.26
2023-01-17T04:45:25.157Z,64.08
2023-01-17T04:48:31.564Z,63.74
2023-01-17T04:51:37.979Z,63.94
2023-01-17T04:54:44.236Z,63.66
2023-01-17T04:57:50.462Z,63.19
2023-01-17T05:00:57.658Z,63.58
2023-01-17T05:04:03.950Z,63.36
2023-01-17T05:07:08.569Z,63.54
2023-01-17T05:10:15.317Z,63.21
2023-01-17T05:13:21.840Z,62.95
2023-01-17T05:16:28.488Z,63.04
2023-01-17T05:19:34.738Z,63.31
2023-01-17T05:22:40.956Z,63.72
2023-01-17T05:25:47.219Z,64.28
2023-01-17T05:28:51.691Z,64.12
2023-01-17T05:31:57.896Z,63.68
2023-01-17T05:35:04.124Z,63.96
2023-01-17T05:38:10.501Z,63.56
2023-01-17T05:41:15.047Z,63.01
2023-01-17T05:44:21.268Z,63.34
2023-01-17T05:47:27.501Z,63.09
2023-01-17T05:50:35.374Z,63.08
2023-01-17T05:53:41.640Z,63.25
2023-01-17T05:56:47.935Z,63.15
2023-01-17T05:59:52.408Z,62.99
2023-01-17T06:03:00.023Z,63.31
2023-01-17T06:06:06.472Z,63.49
2023-01-17T06:09:11.916Z,63.69
2023-01-17T06:12:18.150Z,63.72
2023-01-17T06:15:24.351Z,63.69
2023-01-17T06:18:30.951Z,63.89
2023-01-17T06:21:37.345Z,63.95
2023-01-17T06:24:41.817Z,64.07
2023-01-17T06:27:48.052Z,64.30
2023-01-17T06:30:54.370Z,64.35
2023-01-17T06:33:58.897Z,64.27
2023-01-17T06:37:05.155Z,64.29
2023-01-17T06:40:14.034Z,64.48
2023-01-17T06:43:20.255Z,64.58
2023-01-17T06:46:26.472Z,64.25
2023-01-17T06:49:32.698Z,64.51
2023-01-17T06:52:39.066Z,64.62
2023-01-17T06:55:43.715Z,64.47
2023-01-17T06:58:53.450Z,64.65
2023-01-17T07:01:59.811Z,64.74
2023-01-17T07:05:06.597Z,64.92
2023-01-17T07:08:12.874Z,64.76
2023-01-17T07:11:17.415Z,64.78
2023-01-17T07:14:23.666Z,65.47
2023-01-17T07:17:29.932Z,65.79
2023-01-17T07:20:34.651Z,66.24
2023-01-17T07:23:40.947Z,66.40
2023-01-17T07:26:45.556Z,66.06
2023-01-17T07:29:54.076Z,65.48
2023-01-17T07:33:01.419Z,64.99
2023-01-17T07:36:09.843Z,65.09
2023-01-17T07:39:16.271Z,65.38
2023-01-17T07:42:24.044Z,65.29
2023-01-17T07:45:30.988Z,65.22
2023-01-17T07:48:37.363Z,65.43
2023-01-17T07:51:41.910Z,65.33
2023-01-17T07:54:48.140Z,65.55
2023-01-17T07:57:54.571Z,65.98
2023-01-17T08:01:06.380Z,65.70
2023-01-17T08:04:14.198Z,65.48
2023-01-17T08:07:20.518Z,65.80
2023-01-17T08:10:25.319Z,65.74
2023-01-17T08:13:31.633Z,66.01
2023-01-17T08:16:37.783Z,66.16
2023-01-17T08:19:44.859Z,66.58
2023-01-17T08:22:53.123Z,67.15
2023-01-17T08:26:03.303Z,67.38
2023-01-17T08:29:10.322Z,67.89
2023-01-17T08:32:16.937Z,67.97
2023-01-17T08:35:23.206Z,67.93
2023-01-17T08:38:29.573Z,68.07
2023-01-17T08:41:34.041Z,68.17
2023-01-17T08:44:40.406Z,68.41
2023-01-17T08:47:44.936Z,68.15
2023-01-17T08:50:51.292Z,68.62
2023-01-17T08:53:56.404Z,68.65
2023-01-17T08:57:03.431Z,69.01
2023-01-17T09:00:12.437Z,69.25
2023-01-17T09:03:18.966Z,69.22
2023-01-17T09:06:25.227Z,69.13
2023-01-17T09:09:31.379Z,69.07
2023-01-17T09:12:39.031Z,69.08
2023-01-17T09:15:45.279Z,68.64
2023-01-17T09:18:54.781Z,68.58
2023-01-17T09:22:01.035Z,68.43
2023-01-17T09:25:08.691Z,68.19
2023-01-17T09:28:14.808Z,68.02
2023-01-17T09:31:22.743Z,67.57
2023-01-17T09:34:30.667Z,67.10
2023-01-17T09:37:37.007Z,66.91
2023-01-17T09:40:45.029Z,67.27
2023-01-17T09:43:55.166Z,68.18
2023-01-17T09:47:06.117Z,67.85
2023-01-17T09:50:26.768Z,67.89
2023-01-17T09:53:36.082Z,67.66
2023-01-17T09:56:49.591Z,66.61
2023-01-17T10:00:04.327Z,66.19
2023-01-17T10:03:38.590Z,65.62
2023-01-17T10:07:02.740Z,65.02
2023-01-17T10:10:29.596Z,64.50
2023-01-17T10:13:44.593Z,64.42
2023-01-17T10:16:56.702Z,63.94
2023-01-17T10:20:18.049Z,63.79
2023-01-17T10:24:04.225Z,63.64
2023-01-17T10:27:17.350Z,63.66
2023-01-17T10:30:28.476Z,63.31
2023-01-17T10:33:41.706Z,63.17
2023-01-17T10:36:51.459Z,63.01
2023-01-17T10:40:03.083Z,62.71
2023-01-17T10:43:19.303Z,62.52
2023-01-17T10:46:31.565Z,62.03
2023-01-17T10:49:41.316Z,62.14
2023-01-17T10:52:53.463Z,61.44
2023-01-17T10:55:59.851Z,60.60
2023-01-17T10:59:13.284Z,60.09
2023-01-17T11:02:25.252Z,59.76
2023-01-17T11:05:34.051Z,59.84
2023-01-17T11:08:53.829Z,59.82
2023-01-17T11:12:00.213Z,60.17
2023-01-17T11:15:07.827Z,59.82
2023-01-17T11:18:19.933Z,57.71
2023-01-17T11:21:27.755Z,57.64
2023-01-17T11:24:37.601Z,59.61
2023-01-17T11:27:45.095Z,63.01
2023-01-17T11:30:56.811Z,62.91
2023-01-17T11:34:19.933Z,61.33
2023-01-17T11:37:29.285Z,61.07
2023-01-17T11:40:41.128Z,59.55
2023-01-17T11:43:55.169Z,58.07
2023-01-17T11:47:19.423Z,59.20
2023-01-17T11:50:29.669Z,61.84
2023-01-17T11:53:39.261Z,61.92
2023-01-17T11:56:46.423Z,60.33
2023-01-17T11:59:57.893Z,59.43
2023-01-17T12:03:23.906Z,58.04
2023-01-17T12:06:56.519Z,57.79
2023-01-17T12:10:13.408Z,58.41
2023-01-17T12:13:49.491Z,61.11
2023-01-17T12:17:14.130Z,62.13
2023-01-17T12:20:28.639Z,60.62
2023-01-17T12:23:52.072Z,58.21
2023-01-17T12:27:08.018Z,57.23
2023-01-17T12:30:30.946Z,58.21
2023-01-17T12:33:47.778Z,58.12
2023-01-17T12:36:57.932Z,60.94
2023-01-17T12:40:08.859Z,61.55
2023-01-17T12:43:21.345Z,57.84
2023-01-17T12:46:33.008Z,57.67
2023-01-17T12:49:47.562Z,57.93
2023-01-17T12:53:00.489Z,58.52
2023-01-17T12:56:13.528Z,58.52
2023-01-17T12:59:27.056Z,58.63
2023-01-17T13:02:38.966Z,60.54
2023-01-17T13:05:48.647Z,61.24
2023-01-17T13:08:57.186Z,58.83
2023-01-17T13:12:08.222Z,57.28
2023-01-17T13:15:27.242Z,56.85
2023-01-17T13:18:33.529Z,56.40
2023-01-17T13:21:38.117Z,57.77
2023-01-17T13:24:52.187Z,58.28
2023-01-17T13:28:15.285Z,58.83
2023-01-17T13:31:30.137Z,58.83
2023-01-17T13:35:00.275Z,60.77
2023-01-17T13:38:29.245Z,60.52
2023-01-17T13:41:51.551Z,57.05
2023-01-17T13:44:59.157Z,55.78
2023-01-17T13:48:34.352Z,56.59
2023-01-17T13:52:13.276Z,57.25
2023-01-17T13:55:46.167Z,57.62
2023-01-17T13:59:06.992Z,58.75
2023-01-17T14:02:40.229Z,59.14
2023-01-17T14:05:59.011Z,60.81
2023-01-17T14:09:12.081Z,61.40
2023-01-17T14:12:32.789Z,59.69
2023-01-17T14:15:51.413Z,57.63
2023-01-17T14:18:58.626Z,56.99
2023-01-17T14:22:24.934Z,57.81
2023-01-17T14:25:39.677Z,58.83
2023-01-17T14:28:45.953Z,59.21
2023-01-17T14:31:50.569Z,59.76
2023-01-17T14:34:57.480Z,59.47
2023-01-17T14:38:05.806Z,62.83
2023-01-17T14:41:19.969Z,63.17
2023-01-17T14:44:26.233Z,61.93
2023-01-17T14:47:36.780Z,60.27
2023-01-17T14:50:45.008Z,58.26
2023-01-17T14:53:57.712Z,57.00
2023-01-17T14:57:30.844Z,57.85
2023-01-17T15:00:42.631Z,58.73
2023-01-17T15:03:51.254Z,59.59
2023-01-17T15:06:58.922Z,60.37
2023-01-17T15:10:06.122Z,62.96
2023-01-17T15:13:14.958Z,63.87
2023-01-17T15:16:28.433Z,62.73
2023-01-17T15:19:45.005Z,61.38
2023-01-17T15:22:51.347Z,60.75
2023-01-17T15:25:56.100Z,60.03
2023-01-17T15:29:06.854Z,59.85
2023-01-17T15:32:20.923Z,58.03
2023-01-17T15:35:28.344Z,57.21
2023-01-17T15:38:39.003Z,58.13
2023-01-17T15:41:47.388Z,59.27
2023-01-17T15:44:57.994Z,60.52
2023-01-17T15:48:34.603Z,63.29
2023-01-17T15:51:46.693Z,64.30
2023-01-17T15:54:54.716Z,63.18
2023-01-17T15:58:01.354Z,62.19
2023-01-17T16:01:18.133Z,61.66
2023-01-17T16:04:34.309Z,61.25
2023-01-17T16:07:40.527Z,60.77
2023-01-17T16:10:47.469Z,60.49
2023-01-17T16:13:54.081Z,60.11
2023-01-17T16:17:01.639Z,59.66
2023-01-17T16:20:16.168Z,58.40
2023-01-17T16:23:22.479Z,59.37
2023-01-17T16:26:29.200Z,60.78
2023-01-17T16:29:35.660Z,61.15
2023-01-17T16:32:41.840Z,64.78
2023-01-17T16:35:48.248Z,66.18
2023-01-17T16:38:54.768Z,65.26
2023-01-17T16:42:03.498Z,64.31
2023-01-17T16:45:11.130Z,63.73
2023-01-17T16:48:19.323Z,63.32
2023-01-17T16:51:25.848Z,63.04
2023-01-17T16:54:32.085Z,62.91
2023-01-17T16:57:38.336Z,62.88
2023-01-17T17:00:42.878Z,62.56
2023-01-17T17:03:49.561Z,62.50
2023-01-17T17:06:55.640Z,62.14
2023-01-17T17:10:01.951Z,61.83
2023-01-17T17:13:06.467Z,62.22
2023-01-17T17:16:18.496Z,61.95
2023-01-17T17:19:25.261Z,61.82
2023-01-17T17:22:31.689Z,61.59
2023-01-17T17:25:36.225Z,61.28
2023-01-17T17:28:42.491Z,61.37
2023-01-17T17:31:48.727Z,61.06
2023-01-17T17:34:54.941Z,60.95
2023-01-17T17:38:01.284Z,60.87
2023-01-17T17:41:10.596Z,60.78
2023-01-17T17:44:17.579Z,61.31
2023-01-17T17:47:24.464Z,61.31
2023-01-17T17:50:31.057Z,61.14
2023-01-17T17:53:37.056Z,61.25
2023-01-17T17:56:46.535Z,61.67
2023-01-17T17:59:52.968Z,61.96
2023-01-17T18:02:58.925Z,62.05
2023-01-17T18:06:07.581Z,61.73
2023-01-17T18:09:14.676Z,61.74
2023-01-17T18:12:20.957Z,62.31
2023-01-17T18:15:27.239Z,62.48
2023-01-17T18:18:32.719Z,62.64
2023-01-17T18:21:40.211Z,62.92
2023-01-17T18:24:46.303Z,62.82
2023-01-17T18:27:52.739Z,62.83
2023-01-17T18:30:59.107Z,62.74
2023-01-17T18:34:08.574Z,62.83
2023-01-17T18:37:14.892Z,62.89
2023-01-17T18:40:19.879Z,63.12
2023-01-17T18:43:28.893Z,63.45
2023-01-17T18:46:35.565Z,63.65
2023-01-17T18:49:41.757Z,63.61
2023-01-17T18:52:47.740Z,63.73
2023-01-17T18:55:57.594Z,63.48
2023-01-17T18:59:05.895Z,63.94
2023-01-17T19:02:13.035Z,64.14
2023-01-17T19:05:21.689Z,63.95
2023-01-17T19:08:27.650Z,63.85
2023-01-17T19:11:34.256Z,63.93
2023-01-17T19:14:40.297Z,64.08
2023-01-17T19:17:46.246Z,64.13
2023-01-17T19:20:52.198Z,64.26
2023-01-17T19:23:59.420Z,64.34
2023-01-17T19:27:07.213Z,64.20
2023-01-17T19:30:15.157Z,63.98
2023-01-17T19:33:21.562Z,63.73
2023-01-17T19:36:27.192Z,63.86
2023-01-17T19:39:33.660Z,63.92
2023-01-17T19:42:40.733Z,63.68
2023-01-17T19:45:56.191Z,64.21
2023-01-17T19:49:02.726Z,64.03
2023-01-17T19:52:09.048Z,64.11
2023-01-17T19:55:13.631Z,63.78
2023-01-17T19:58:20.028Z,63.87
2023-01-17T20:01:28.239Z,63.61
2023-01-17T20:04:34.634Z,63.62
2023-01-17T20:07:39.176Z,63.51
2023-01-17T20:10:46.741Z,63.71
2023-01-17T20:13:57.630Z,63.52
2023-01-17T20:17:04.725Z,63.71
2023-01-17T20:20:13.632Z,63.98
2023-01-17T20:23:19.809Z,64.02
2023-01-17T20:26:34.886Z,63.90
2023-01-17T20:29:41.455Z,63.75
2023-01-17T20:32:47.920Z,64.01
2023-01-17T20:36:09.090Z,63.27
2023-01-17T20:39:18.206Z,63.86
2023-01-17T20:42:24.378Z,63.48
2023-01-17T20:45:30.690Z,63.50
2023-01-17T20:48:35.511Z,63.39
2023-01-17T20:51:44.442Z,63.07
2023-01-17T20:54:51.863Z,62.31
2023-01-17T20:57:59.876Z,61.38
2023-01-17T21:01:06.932Z,60.96
2023-01-17T21:04:14.790Z,60.59
2023-01-17T21:07:21.245Z,60.71
2023-01-17T21:10:29.475Z,60.48
2023-01-17T21:13:35.977Z,60.50
2023-01-17T21:16:42.415Z,60.91
2023-01-17T21:19:48.647Z,61.43
2023-01-17T21:22:54.975Z,60.79
2023-01-17T21:25:59.571Z,61.03
2023-01-17T21:29:05.895Z,61.12
2023-01-17T21:32:10.331Z,61.15
2023-01-17T21:35:16.819Z,60.94
2023-01-17T21:38:23.118Z,60.28
2023-01-17T21:41:28.751Z,59.58
2023-01-17T21:44:36.474Z,59.22
2023-01-17T21:47:44.783Z,59.70
2023-01-17T21:50:52.786Z,61.40
2023-01-17T21:53:59.173Z,63.84
2023-01-17T21:57:21.082Z,64.00
2023-01-17T22:00:27.320Z,63.45
2023-01-17T22:03:33.630Z,62.66
2023-01-17T22:06:39.160Z,62.08
2023-01-17T22:09:45.505Z,61.99
2023-01-17T22:12:52.727Z,62.10
2023-01-17T22:16:03.631Z,62.87
2023-01-17T22:19:09.882Z,63.10
2023-01-17T22:22:16.343Z,63.77
2023-01-17T22:25:23.370Z,64.31
2023-01-17T22:28:32.694Z,64.45
2023-01-17T22:31:39.094Z,64.42
2023-01-17T22:34:43.614Z,64.80
2023-01-17T22:37:49.939Z,64.89
2023-01-17T22:40:55.367Z,65.01
2023-01-17T22:44:03.582Z,65.20
2023-01-17T22:47:09.952Z,65.33
2023-01-17T22:50:14.433Z,65.16
2023-01-17T22:53:20.596Z,65.39
2023-01-17T22:56:29.261Z,65.31
2023-01-17T22:59:35.726Z,65.33
2023-01-17T23:02:42.766Z,65.31
2023-01-17T23:05:49.073Z,65.53
2023-01-17T23:08:57.366Z,65.54
2023-01-17T23:12:03.510Z,65.61
2023-01-17T23:15:28.359Z,65.73
2023-01-17T23:18:52.092Z,65.82
2023-01-17T23:22:19.392Z,65.82
2023-01-17T23:25:25.765Z,66.11
2023-01-17T23:28:31.988Z,66.08
2023-01-17T23:31:39.499Z,66.31
2023-01-17T23:34:47.771Z,65.79
2023-01-17T23:38:11.520Z,65.64
2023-01-17T23:41:34.871Z,66.07
2023-01-17T23:44:40.957Z,65.95
2023-01-17T23:47:47.387Z,66.76
2023-01-17T23:50:57.764Z,67.21
2023-01-17T23:54:06.299Z,67.30
2023-01-17T23:57:12.542Z,66.55
